sensor_id;sensor_type;location;lat;lon;timestamp;pressure;altitude;pressure_sealevel;temperature;humidity
74329;BME280;62749;51.982;5.916;2023-03-01T00:02:11;102983.75;;;2.50;54.04
74329;BME280;62749;51.982;5.916;2023-03-01T00:04:43;102988.88;;;2.47;54.42
74329;BME280;62749;51.982;5.916;2023-03-01T00:07:13;102982.06;;;2.52;54.09
74329;BME280;62749;51.982;5.916;2023-03-01T00:09:42;102985.56;;;2.54;55.03
74329;BME280;62749;51.982;5.916;2023-03-01T00:12:12;102987.41;;;2.58;54.36
74329;BME280;62749;51.982;5.916;2023-03-01T00:14:41;102977.78;;;2.55;54.33
74329;BME280;62749;51.982;5.916;2023-03-01T00:17:11;102975.19;;;2.55;54.13
74329;BME280;62749;51.982;5.916;2023-03-01T00:19:42;102972.56;;;2.55;55.02
74329;BME280;62749;51.982;5.916;2023-03-01T00:22:12;102975.72;;;2.43;54.55
74329;BME280;62749;51.982;5.916;2023-03-01T00:24:41;102966.91;;;2.38;54.50
74329;BME280;62749;51.982;5.916;2023-03-01T00:27:10;102966.13;;;2.42;54.98
74329;BME280;62749;51.982;5.916;2023-03-01T00:29:40;102960.06;;;2.43;54.99
74329;BME280;62749;51.982;5.916;2023-03-01T00:32:09;102959.13;;;2.41;55.30
74329;BME280;62749;51.982;5.916;2023-03-01T00:34:38;102953.72;;;2.34;54.62
74329;BME280;62749;51.982;5.916;2023-03-01T00:37:10;102956.31;;;2.34;54.72
74329;BME280;62749;51.982;5.916;2023-03-01T00:39:40;102957.22;;;2.34;55.49
74329;BME280;62749;51.982;5.916;2023-03-01T00:42:09;102959.94;;;2.37;54.89
74329;BME280;62749;51.982;5.916;2023-03-01T00:44:38;102957.31;;;2.37;55.27
74329;BME280;62749;51.982;5.916;2023-03-01T00:47:08;102959.84;;;2.34;55.13
74329;BME280;62749;51.982;5.916;2023-03-01T00:49:37;102971.91;;;2.30;55.49
74329;BME280;62749;51.982;5.916;2023-03-01T00:52:09;102959.59;;;2.25;55.13
74329;BME280;62749;51.982;5.916;2023-03-01T00:54:39;102958.56;;;2.20;55.00
74329;BME280;62749;51.982;5.916;2023-03-01T00:57:08;102957.69;;;2.19;55.55
74329;BME280;62749;51.982;5.916;2023-03-01T00:59:37;102945.44;;;2.17;55.91
74329;BME280;62749;51.982;5.916;2023-03-01T01:02:07;102946.97;;;2.08;55.37
74329;BME280;62749;51.982;5.916;2023-03-01T01:04:36;102936.44;;;2.05;55.74
74329;BME280;62749;51.982;5.916;2023-03-01T01:07:05;102943.50;;;2.09;55.57
74329;BME280;62749;51.982;5.916;2023-03-01T01:09:37;102933.03;;;2.08;55.49
74329;BME280;62749;51.982;5.916;2023-03-01T01:12:07;102941.78;;;2.10;56.04
74329;BME280;62749;51.982;5.916;2023-03-01T01:14:37;102938.31;;;2.09;56.41
74329;BME280;62749;51.982;5.916;2023-03-01T01:17:06;102933.84;;;2.07;55.87
74329;BME280;62749;51.982;5.916;2023-03-01T01:19:36;102932.88;;;2.02;56.69
74329;BME280;62749;51.982;5.916;2023-03-01T01:22:05;102924.94;;;1.98;56.39
74329;BME280;62749;51.982;5.916;2023-03-01T01:24:37;102927.41;;;1.92;56.85
74329;BME280;62749;51.982;5.916;2023-03-01T01:27:06;102922.94;;;1.88;56.88
74329;BME280;62749;51.982;5.916;2023-03-01T01:29:36;102927.94;;;1.80;56.80
74329;BME280;62749;51.982;5.916;2023-03-01T01:32:05;102920.97;;;1.81;57.08
74329;BME280;62749;51.982;5.916;2023-03-01T01:34:53;102913.97;;;1.78;57.27
74329;BME280;62749;51.982;5.916;2023-03-01T01:37:22;102915.72;;;1.79;57.71
74329;BME280;62749;51.982;5.916;2023-03-01T01:40:01;102907.88;;;1.78;56.96
74329;BME280;62749;51.982;5.916;2023-03-01T01:42:32;102916.53;;;1.77;56.95
74329;BME280;62749;51.982;5.916;2023-03-01T01:45:27;102916.09;;;1.61;57.64
74329;BME280;62749;51.982;5.916;2023-03-01T01:48:01;102917.81;;;1.61;57.29
74329;BME280;62749;51.982;5.916;2023-03-01T01:50:35;102918.56;;;1.57;57.60
74329;BME280;62749;51.982;5.916;2023-03-01T01:53:11;102915.84;;;1.53;57.95
74329;BME280;62749;51.982;5.916;2023-03-01T01:55:47;102904.44;;;1.48;58.30
74329;BME280;62749;51.982;5.916;2023-03-01T01:58:19;102909.53;;;1.45;58.08
74329;BME280;62749;51.982;5.916;2023-03-01T02:00:50;102910.47;;;1.47;58.06
74329;BME280;62749;51.982;5.916;2023-03-01T02:03:24;102913.81;;;1.43;57.76
74329;BME280;62749;51.982;5.916;2023-03-01T02:06:04;102917.06;;;1.36;58.65
74329;BME280;62749;51.982;5.916;2023-03-01T02:08:39;102917.06;;;1.36;57.95
74329;BME280;62749;51.982;5.916;2023-03-01T02:11:13;102918.69;;;1.32;57.67
74329;BME280;62749;51.982;5.916;2023-03-01T02:13:44;102910.94;;;1.34;58.59
74329;BME280;62749;51.982;5.916;2023-03-01T02:16:16;102909.31;;;1.37;58.48
74329;BME280;62749;51.982;5.916;2023-03-01T02:18:46;102905.63;;;1.31;58.07
74329;BME280;62749;51.982;5.916;2023-03-01T02:21:34;102910.94;;;1.34;58.10
74329;BME280;62749;51.982;5.916;2023-03-01T02:24:17;102900.53;;;1.34;58.61
74329;BME280;62749;51.982;5.916;2023-03-01T02:26:55;102895.22;;;1.31;59.13
74329;BME280;62749;51.982;5.916;2023-03-01T02:29:28;102894.97;;;1.23;58.50
74329;BME280;62749;51.982;5.916;2023-03-01T02:32:02;102890.56;;;1.20;58.79
74329;BME280;62749;51.982;5.916;2023-03-01T02:34:33;102891.59;;;1.26;59.12
74329;BME280;62749;51.982;5.916;2023-03-01T02:37:06;102886.06;;;1.15;58.62
74329;BME280;62749;51.982;5.916;2023-03-01T02:39:42;102898.31;;;1.19;58.95
74329;BME280;62749;51.982;5.916;2023-03-01T02:42:18;102888.84;;;1.21;58.96
74329;BME280;62749;51.982;5.916;2023-03-01T02:44:53;102887.97;;;1.20;59.53
74329;BME280;62749;51.982;5.916;2023-03-01T02:47:22;102887.97;;;1.20;58.85
74329;BME280;62749;51.982;5.916;2023-03-01T02:49:52;102886.34;;;1.24;59.08
74329;BME280;62749;51.982;5.916;2023-03-01T02:52:33;102884.59;;;1.25;58.51
74329;BME280;62749;51.982;5.916;2023-03-01T02:55:07;102881.09;;;1.22;59.75
74329;BME280;62749;51.982;5.916;2023-03-01T02:57:40;102882.84;;;1.23;59.29
74329;BME280;62749;51.982;5.916;2023-03-01T03:00:17;102884.69;;;1.28;59.00
74329;BME280;62749;51.982;5.916;2023-03-01T03:02:49;102880.47;;;1.31;59.71
74329;BME280;62749;51.982;5.916;2023-03-01T03:05:21;102882.22;;;1.32;58.91
74329;BME280;62749;51.982;5.916;2023-03-01T03:07:51;102878.53;;;1.24;59.01
74329;BME280;62749;51.982;5.916;2023-03-01T03:10:23;102870.63;;;1.21;58.98
74329;BME280;62749;51.982;5.916;2023-03-01T03:12:55;102868.81;;;1.18;59.18
74329;BME280;62749;51.982;5.916;2023-03-01T03:15:28;102874.13;;;1.21;59.59
74329;BME280;62749;51.982;5.916;2023-03-01T03:17:58;102872.47;;;1.25;59.19
74329;BME280;62749;51.982;5.916;2023-03-01T03:20:28;102868.97;;;1.25;58.98
74329;BME280;62749;51.982;5.916;2023-03-01T03:22:58;102877.63;;;1.23;59.04
74329;BME280;62749;51.982;5.916;2023-03-01T03:25:29;102875.03;;;1.23;58.96
74329;BME280;62749;51.982;5.916;2023-03-01T03:27:59;102866.31;;;1.21;58.84
74329;BME280;62749;51.982;5.916;2023-03-01T03:30:31;102870.59;;;1.19;59.16
74329;BME280;62749;51.982;5.916;2023-03-01T03:33:00;102857.19;;;1.07;59.09
74329;BME280;62749;51.982;5.916;2023-03-01T03:35:32;102867.28;;;0.98;59.50
74329;BME280;62749;51.982;5.916;2023-03-01T03:38:06;102867.22;;;0.95;59.80
74329;BME280;62749;51.982;5.916;2023-03-01T03:40:43;102866.41;;;0.96;59.94
74329;BME280;62749;51.982;5.916;2023-03-01T03:43:15;102869.13;;;1.00;59.64
74329;BME280;62749;51.982;5.916;2023-03-01T03:45:49;102869.91;;;0.98;59.72
74329;BME280;62749;51.982;5.916;2023-03-01T03:48:20;102861.09;;;0.93;59.76
74329;BME280;62749;51.982;5.916;2023-03-01T03:50:51;102860.28;;;0.95;60.45
74329;BME280;62749;51.982;5.916;2023-03-01T03:53:23;102849.94;;;0.97;60.24
74329;BME280;62749;51.982;5.916;2023-03-01T03:55:54;102856.88;;;0.98;60.21
74329;BME280;62749;51.982;5.916;2023-03-01T03:58:25;102858.66;;;0.99;60.22
74329;BME280;62749;51.982;5.916;2023-03-01T04:01:02;102853.66;;;1.05;60.50
74329;BME280;62749;51.982;5.916;2023-03-01T04:03:32;102855.47;;;1.07;59.79
74329;BME280;62749;51.982;5.916;2023-03-01T04:06:02;102851.91;;;1.05;60.17
74329;BME280;62749;51.982;5.916;2023-03-01T04:08:32;102858.75;;;1.02;59.83
74329;BME280;62749;51.982;5.916;2023-03-01T04:11:03;102860.56;;;1.04;60.47
74329;BME280;62749;51.982;5.916;2023-03-01T04:13:45;102860.41;;;1.00;60.06
74329;BME280;62749;51.982;5.916;2023-03-01T04:16:17;102857.66;;;0.94;60.63
74329;BME280;62749;51.982;5.916;2023-03-01T04:18:47;102856.81;;;0.95;60.53
74329;BME280;62749;51.982;5.916;2023-03-01T04:21:17;102838.34;;;0.87;60.58
74329;BME280;62749;51.982;5.916;2023-03-01T04:23:46;102844.63;;;0.94;60.47
74329;BME280;62749;51.982;5.916;2023-03-01T04:26:19;102852.38;;;0.92;60.47
74329;BME280;62749;51.982;5.916;2023-03-01T04:28:49;102844.66;;;0.95;60.73
74329;BME280;62749;51.982;5.916;2023-03-01T04:31:21;102829.94;;;0.96;60.70
74329;BME280;62749;51.982;5.916;2023-03-01T04:33:52;102833.38;;;0.95;60.88
74329;BME280;62749;51.982;5.916;2023-03-01T04:36:24;102837.66;;;0.93;60.85
74329;BME280;62749;51.982;5.916;2023-03-01T04:38:54;102836.72;;;0.90;61.17
74329;BME280;62749;51.982;5.916;2023-03-01T04:41:25;102827.97;;;0.88;61.23
74329;BME280;62749;51.982;5.916;2023-03-01T04:43:54;102843.72;;;0.93;60.90
74329;BME280;62749;51.982;5.916;2023-03-01T04:46:29;102833.38;;;0.95;60.65
74329;BME280;62749;51.982;5.916;2023-03-01T04:48:58;102833.53;;;0.99;61.26
74329;BME280;62749;51.982;5.916;2023-03-01T04:51:28;102832.69;;;1.00;60.94
74329;BME280;62749;51.982;5.916;2023-03-01T04:53:58;102830.13;;;1.02;61.01
74329;BME280;62749;51.982;5.916;2023-03-01T04:56:28;102827.56;;;1.03;60.95
74329;BME280;62749;51.982;5.916;2023-03-01T04:58:57;102823.25;;;1.04;60.71
74329;BME280;62749;51.982;5.916;2023-03-01T05:01:29;102825.00;;;1.05;61.19
74329;BME280;62749;51.982;5.916;2023-03-01T05:04:00;102820.66;;;1.04;61.18
74329;BME280;62749;51.982;5.916;2023-03-01T05:06:31;102815.31;;;0.99;60.98
74329;BME280;62749;51.982;5.916;2023-03-01T05:09:01;102805.75;;;1.00;61.32
74329;BME280;62749;51.982;5.916;2023-03-01T05:11:31;102807.59;;;1.02;60.85
74329;BME280;62749;51.982;5.916;2023-03-01T05:14:03;102802.31;;;1.01;60.91
74329;BME280;62749;51.982;5.916;2023-03-01T05:16:36;102804.19;;;1.05;61.10
74329;BME280;62749;51.982;5.916;2023-03-01T05:19:05;102803.28;;;1.04;60.61
74329;BME280;62749;51.982;5.916;2023-03-01T05:21:37;102795.34;;;1.00;61.04
74329;BME280;62749;51.982;5.916;2023-03-01T05:24:29;102786.53;;;0.95;60.97
74329;BME280;62749;51.982;5.916;2023-03-01T05:26:59;102778.63;;;0.91;61.08
74329;BME280;62749;51.982;5.916;2023-03-01T05:29:31;102772.53;;;0.91;61.08
74329;BME280;62749;51.982;5.916;2023-03-01T05:32:04;102773.47;;;0.93;61.51
74329;BME280;62749;51.982;5.916;2023-03-01T05:34:36;102776.91;;;0.92;61.39
74329;BME280;62749;51.982;5.916;2023-03-01T05:37:05;102776.84;;;0.90;60.87
74329;BME280;62749;51.982;5.916;2023-03-01T05:39:36;102768.00;;;0.85;60.72
74329;BME280;62749;51.982;5.916;2023-03-01T05:42:05;102778.44;;;0.85;61.52
74329;BME280;62749;51.982;5.916;2023-03-01T05:44:35;102774.91;;;0.83;61.78
74329;BME280;62749;51.982;5.916;2023-03-01T05:47:07;102775.75;;;0.82;61.61
74329;BME280;62749;51.982;5.916;2023-03-01T05:49:36;102765.16;;;0.76;61.45
74329;BME280;62749;51.982;5.916;2023-03-01T05:52:05;102775.69;;;0.81;62.03
74329;BME280;62749;51.982;5.916;2023-03-01T05:54:35;102775.81;;;0.85;61.39
74329;BME280;62749;51.982;5.916;2023-03-01T05:57:04;102781.03;;;0.85;61.16
74329;BME280;62749;51.982;5.916;2023-03-01T05:59:34;102766.31;;;0.86;61.12
74329;BME280;62749;51.982;5.916;2023-03-01T06:02:03;102758.44;;;0.84;61.80
74329;BME280;62749;51.982;5.916;2023-03-01T06:04:35;102762.88;;;0.87;61.56
74329;BME280;62749;51.982;5.916;2023-03-01T06:07:05;102766.31;;;0.86;61.49
74329;BME280;62749;51.982;5.916;2023-03-01T06:09:34;102766.34;;;0.87;62.13
74329;BME280;62749;51.982;5.916;2023-03-01T06:12:04;102763.72;;;0.86;62.08
74329;BME280;62749;51.982;5.916;2023-03-01T06:14:34;102771.56;;;0.87;61.62
74329;BME280;62749;51.982;5.916;2023-03-01T06:17:03;102770.72;;;0.88;61.65
74329;BME280;62749;51.982;5.916;2023-03-01T06:19:35;102775.09;;;0.89;61.26
74329;BME280;62749;51.982;5.916;2023-03-01T06:22:04;102779.38;;;0.87;61.59
74329;BME280;62749;51.982;5.916;2023-03-01T06:24:34;102776.81;;;0.89;61.50
74329;BME280;62749;51.982;5.916;2023-03-01T06:27:04;102767.00;;;0.80;62.47
74329;BME280;62749;51.982;5.916;2023-03-01T06:29:33;102785.47;;;0.88;62.36
74329;BME280;62749;51.982;5.916;2023-03-01T06:32:05;102783.81;;;0.90;62.17
74329;BME280;62749;51.982;5.916;2023-03-01T06:34:37;102775.06;;;0.88;61.89
74329;BME280;62749;51.982;5.916;2023-03-01T06:37:07;102770.63;;;0.85;61.59
74329;BME280;62749;51.982;5.916;2023-03-01T06:39:36;102762.66;;;0.79;61.81
74329;BME280;62749;51.982;5.916;2023-03-01T06:42:07;102767.97;;;0.84;61.93
74329;BME280;62749;51.982;5.916;2023-03-01T06:44:37;102755.00;;;0.85;62.24
74329;BME280;62749;51.982;5.916;2023-03-01T06:47:09;102760.22;;;0.85;62.94
74329;BME280;62749;51.982;5.916;2023-03-01T06:49:41;102773.38;;;0.90;63.67
74329;BME280;62749;51.982;5.916;2023-03-01T06:52:10;102768.22;;;0.91;63.31
74329;BME280;62749;51.982;5.916;2023-03-01T06:54:40;102784.94;;;1.00;62.59
74329;BME280;62749;51.982;5.916;2023-03-01T06:57:09;102778.06;;;1.02;61.96
74329;BME280;62749;51.982;5.916;2023-03-01T06:59:39;102779.81;;;1.03;61.94
74329;BME280;62749;51.982;5.916;2023-03-01T07:02:10;102780.75;;;1.05;62.35
74329;BME280;62749;51.982;5.916;2023-03-01T07:04:42;102776.19;;;0.98;62.42
74329;BME280;62749;51.982;5.916;2023-03-01T07:10:24;102783.84;;;0.91;62.40
74329;BME280;62749;51.982;5.916;2023-03-01T07:12:55;102775.34;;;0.99;62.07
74329;BME280;62749;51.982;5.916;2023-03-01T07:15:25;102775.41;;;1.00;61.94
74329;BME280;62749;51.982;5.916;2023-03-01T07:17:56;102779.13;;;1.09;61.93
74329;BME280;62749;51.982;5.916;2023-03-01T07:20:28;102780.09;;;1.12;62.10
74329;BME280;62749;51.982;5.916;2023-03-01T07:22:57;102781.94;;;1.16;62.02
74329;BME280;62749;51.982;5.916;2023-03-01T07:25:27;102776.06;;;1.23;62.12
74329;BME280;62749;51.982;5.916;2023-03-01T07:27:56;102766.59;;;1.26;62.03
74329;BME280;62749;51.982;5.916;2023-03-01T07:30:25;102779.59;;;1.26;61.73
74329;BME280;62749;51.982;5.916;2023-03-01T07:32:55;102767.16;;;1.15;60.99
74329;BME280;62749;51.982;5.916;2023-03-01T07:35:28;102754.25;;;1.18;60.87
74329;BME280;62749;51.982;5.916;2023-03-01T07:37:59;102762.53;;;1.35;60.87
74329;BME280;62749;51.982;5.916;2023-03-01T07:40:29;102763.66;;;1.45;60.15
74329;BME280;62749;51.982;5.916;2023-03-01T07:42:58;102757.84;;;1.54;60.41
74329;BME280;62749;51.982;5.916;2023-03-01T07:45:28;102769.47;;;1.68;59.89
74329;BME280;62749;51.982;5.916;2023-03-01T07:47:58;102775.81;;;1.78;59.50
74329;BME280;62749;51.982;5.916;2023-03-01T07:50:30;102773.53;;;1.91;59.43
74329;BME280;62749;51.982;5.916;2023-03-01T07:52:59;102770.78;;;1.84;58.92
74329;BME280;62749;51.982;5.916;2023-03-01T07:55:29;102768.31;;;1.91;59.13
74329;BME280;62749;51.982;5.916;2023-03-01T07:57:58;102777.38;;;2.05;59.02
74329;BME280;62749;51.982;5.916;2023-03-01T08:00:27;102771.22;;;2.02;58.69
74329;BME280;62749;51.982;5.916;2023-03-01T08:02:59;102768.69;;;2.05;58.69
74329;BME280;62749;51.982;5.916;2023-03-01T08:05:32;102774.97;;;2.13;58.69
74329;BME280;62749;51.982;5.916;2023-03-01T08:08:01;102780.34;;;2.19;58.76
74329;BME280;62749;51.982;5.916;2023-03-01T08:10:31;102790.91;;;2.25;58.40
74329;BME280;62749;51.982;5.916;2023-03-01T08:13:00;102791.00;;;2.28;57.57
74329;BME280;62749;51.982;5.916;2023-03-01T08:15:30;102792.03;;;2.35;57.69
74329;BME280;62749;51.982;5.916;2023-03-01T08:17:59;102788.63;;;2.39;57.78
74329;BME280;62749;51.982;5.916;2023-03-01T08:20:31;102789.72;;;2.48;57.63
74329;BME280;62749;51.982;5.916;2023-03-01T08:23:01;102783.84;;;2.56;56.80
74329;BME280;62749;51.982;5.916;2023-03-01T08:25:30;102778.81;;;2.64;57.54
74329;BME280;62749;51.982;5.916;2023-03-01T08:27:59;102786.00;;;2.76;56.76
74329;BME280;62749;51.982;5.916;2023-03-01T08:30:29;102774.06;;;2.86;56.00
74329;BME280;62749;51.982;5.916;2023-03-01T08:32:58;102779.38;;;2.90;56.50
74329;BME280;62749;51.982;5.916;2023-03-01T08:35:30;102766.38;;;2.94;56.50
74329;BME280;62749;51.982;5.916;2023-03-01T08:38:00;102775.00;;;2.91;55.80
74329;BME280;62749;51.982;5.916;2023-03-01T08:40:29;102769.34;;;3.09;55.44
74329;BME280;62749;51.982;5.916;2023-03-01T08:42:58;102755.44;;;3.12;55.45
74329;BME280;62749;51.982;5.916;2023-03-01T08:45:28;102763.53;;;3.26;54.92
74329;BME280;62749;51.982;5.916;2023-03-01T08:48:24;102759.41;;;3.37;54.59
74329;BME280;62749;51.982;5.916;2023-03-01T08:50:56;102753.38;;;3.40;53.73
74329;BME280;62749;51.982;5.916;2023-03-01T08:53:25;102761.41;;;3.50;54.16
74329;BME280;62749;51.982;5.916;2023-03-01T08:55:55;102757.69;;;3.37;53.16
74329;BME280;62749;51.982;5.916;2023-03-01T08:58:24;102763.13;;;3.48;53.61
74329;BME280;62749;51.982;5.916;2023-03-01T09:00:53;102757.19;;;3.57;53.58
74329;BME280;62749;51.982;5.916;2023-03-01T09:03:23;102746.78;;;3.60;53.23
74329;BME280;62749;51.982;5.916;2023-03-01T09:05:59;102753.03;;;3.68;53.17
74329;BME280;62749;51.982;5.916;2023-03-01T09:08:28;102747.97;;;3.78;52.46
74329;BME280;62749;51.982;5.916;2023-03-01T09:10:58;102743.75;;;3.86;52.50
74329;BME280;62749;51.982;5.916;2023-03-01T09:13:30;102726.50;;;3.97;51.85
74329;BME280;62749;51.982;5.916;2023-03-01T09:16:02;102738.13;;;4.15;52.20
74329;BME280;62749;51.982;5.916;2023-03-01T09:18:33;102736.38;;;4.12;51.81
74329;BME280;62749;51.982;5.916;2023-03-01T09:21:07;102740.97;;;4.29;50.51
74329;BME280;62749;51.982;5.916;2023-03-01T09:24:03;102742.97;;;4.47;50.42
74329;BME280;62749;51.982;5.916;2023-03-01T09:26:33;102735.28;;;4.56;50.07
74329;BME280;62749;51.982;5.916;2023-03-01T09:29:02;102738.81;;;4.61;50.05
74329;BME280;62749;51.982;5.916;2023-03-01T09:31:32;102726.69;;;4.68;49.61
74329;BME280;62749;51.982;5.916;2023-03-01T09:34:01;102728.34;;;4.60;49.10
74329;BME280;62749;51.982;5.916;2023-03-01T09:36:34;102718.00;;;4.71;48.89
74329;BME280;62749;51.982;5.916;2023-03-01T09:39:04;102731.97;;;4.70;48.73
74329;BME280;62749;51.982;5.916;2023-03-01T09:41:44;102731.91;;;4.68;48.98
74329;BME280;62749;51.982;5.916;2023-03-01T09:44:31;102719.59;;;4.59;48.78
74329;BME280;62749;51.982;5.916;2023-03-01T09:47:03;102729.34;;;4.71;49.17
74329;BME280;62749;51.982;5.916;2023-03-01T09:49:36;102721.03;;;5.03;48.78
74329;BME280;62749;51.982;5.916;2023-03-01T09:52:21;102717.53;;;5.01;48.50
74329;BME280;62749;51.982;5.916;2023-03-01T09:54:55;102706.34;;;5.18;47.62
74329;BME280;62749;51.982;5.916;2023-03-01T09:57:30;102700.16;;;5.11;47.94
74329;BME280;62749;51.982;5.916;2023-03-01T10:00:20;102691.47;;;5.14;47.81
74329;BME280;62749;51.982;5.916;2023-03-01T10:02:59;102695.66;;;5.01;48.19
74329;BME280;62749;51.982;5.916;2023-03-01T10:05:41;102692.16;;;4.99;48.08
74329;BME280;62749;51.982;5.916;2023-03-01T10:08:28;102694.16;;;5.21;47.68
74329;BME280;62749;51.982;5.916;2023-03-01T10:11:02;102693.31;;;5.22;46.62
74329;BME280;62749;51.982;5.916;2023-03-01T10:13:43;102689.13;;;5.42;46.33
74329;BME280;62749;51.982;5.916;2023-03-01T10:16:19;102702.22;;;5.40;47.28
74329;BME280;62749;51.982;5.916;2023-03-01T10:18:55;102694.41;;;5.46;47.88
74329;BME280;62749;51.982;5.916;2023-03-01T10:21:45;102697.97;;;5.56;46.37
74329;BME280;62749;51.982;5.916;2023-03-01T10:24:19;102694.53;;;5.60;45.36
74329;BME280;62749;51.982;5.916;2023-03-01T10:26:54;102681.34;;;5.52;46.29
74329;BME280;62749;51.982;5.916;2023-03-01T10:29:31;102691.06;;;5.60;45.19
74329;BME280;62749;51.982;5.916;2023-03-01T10:32:04;102680.53;;;5.58;45.29
74329;BME280;62749;51.982;5.916;2023-03-01T10:34:36;102676.78;;;5.30;46.67
74329;BME280;62749;51.982;5.916;2023-03-01T10:37:11;102680.38;;;5.41;46.57
74329;BME280;62749;51.982;5.916;2023-03-01T10:42:47;102658.63;;;5.48;45.85
74329;BME280;62749;51.982;5.916;2023-03-01T10:45:31;102660.38;;;5.51;46.19
74329;BME280;62749;51.982;5.916;2023-03-01T10:48:08;102666.56;;;5.58;45.42
74329;BME280;62749;51.982;5.916;2023-03-01T10:50:41;102654.47;;;5.78;45.46
74329;BME280;62749;51.982;5.916;2023-03-01T10:53:24;102647.59;;;5.93;45.68
74329;BME280;62749;51.982;5.916;2023-03-01T10:55:58;102656.34;;;5.96;44.83
74329;BME280;62749;51.982;5.916;2023-03-01T10:58:32;102655.44;;;5.90;45.59
74329;BME280;62749;51.982;5.916;2023-03-01T11:01:04;102648.34;;;5.75;45.12
74329;BME280;62749;51.982;5.916;2023-03-01T11:03:36;102639.41;;;5.52;46.13
74329;BME280;62749;51.982;5.916;2023-03-01T11:06:20;102646.34;;;5.44;47.06
74329;BME280;62749;51.982;5.916;2023-03-01T11:08:50;102645.59;;;5.58;46.84
74329;BME280;62749;51.982;5.916;2023-03-01T11:11:30;102635.28;;;5.84;44.87
74329;BME280;62749;51.982;5.916;2023-03-01T11:14:07;102638.00;;;5.96;44.72
74329;BME280;62749;51.982;5.916;2023-03-01T11:16:45;102634.44;;;5.87;44.35
74329;BME280;62749;51.982;5.916;2023-03-01T11:19:17;102640.47;;;5.73;44.54
74329;BME280;62749;51.982;5.916;2023-03-01T11:22:00;102632.56;;;5.70;44.89
74329;BME280;62749;51.982;5.916;2023-03-01T11:24:37;102643.13;;;5.78;44.09
74329;BME280;62749;51.982;5.916;2023-03-01T11:27:17;102638.84;;;5.94;44.78
74329;BME280;62749;51.982;5.916;2023-03-01T11:29:55;102634.63;;;6.10;44.03
74329;BME280;62749;51.982;5.916;2023-03-01T11:32:34;102648.81;;;6.43;43.20
74329;BME280;62749;51.982;5.916;2023-03-01T11:35:12;102635.47;;;6.09;43.64
74329;BME280;62749;51.982;5.916;2023-03-01T11:37:57;102632.84;;;6.07;43.66
74329;BME280;62749;51.982;5.916;2023-03-01T11:40:33;102623.28;;;6.16;43.54
74329;BME280;62749;51.982;5.916;2023-03-01T11:43:14;102617.31;;;6.48;42.97
74329;BME280;62749;51.982;5.916;2023-03-01T11:48:59;102621.03;;;7.43;42.19
74329;BME280;62749;51.982;5.916;2023-03-01T11:51:44;102618.34;;;7.05;42.86
74329;BME280;62749;51.982;5.916;2023-03-01T11:54:44;102612.25;;;7.00;42.36
74329;BME280;62749;51.982;5.916;2023-03-01T11:57:33;102627.88;;;6.65;42.55
74329;BME280;62749;51.982;5.916;2023-03-01T12:00:32;102624.34;;;6.53;42.85
74329;BME280;62749;51.982;5.916;2023-03-01T12:03:30;102613.81;;;6.44;42.21
74329;BME280;62749;51.982;5.916;2023-03-01T12:06:35;102612.91;;;6.39;42.98
74329;BME280;62749;51.982;5.916;2023-03-01T12:09:38;102613.72;;;6.25;43.41
74329;BME280;62749;51.982;5.916;2023-03-01T12:12:30;102610.34;;;6.50;42.92
74329;BME280;62749;51.982;5.916;2023-03-01T12:15:30;102612.97;;;6.60;43.77
74329;BME280;62749;51.982;5.916;2023-03-01T12:18:36;102608.72;;;6.95;41.64
74329;BME280;62749;51.982;5.916;2023-03-01T12:21:21;102597.34;;;6.90;41.61
74329;BME280;62749;51.982;5.916;2023-03-01T12:27:25;102591.22;;;7.31;40.73
74329;BME280;62749;51.982;5.916;2023-03-01T12:30:17;102581.59;;;7.21;41.16
74329;BME280;62749;51.982;5.916;2023-03-01T12:33:02;102579.84;;;7.31;41.84
74329;BME280;62749;51.982;5.916;2023-03-01T12:35:50;102573.69;;;7.49;41.07
74329;BME280;62749;51.982;5.916;2023-03-01T12:38:32;102573.72;;;7.47;40.91
74329;BME280;62749;51.982;5.916;2023-03-01T12:41:25;102578.09;;;7.30;40.13
74329;BME280;62749;51.982;5.916;2023-03-01T12:44:11;102576.31;;;7.30;39.49
74329;BME280;62749;51.982;5.916;2023-03-01T12:46:57;102562.31;;;7.36;39.31
74329;BME280;62749;51.982;5.916;2023-03-01T12:49:35;102573.69;;;7.63;38.77
74329;BME280;62749;51.982;5.916;2023-03-01T12:52:20;102568.38;;;7.89;38.98
74329;BME280;62749;51.982;5.916;2023-03-01T12:54:56;102555.19;;;8.02;38.54
74329;BME280;62749;51.982;5.916;2023-03-01T12:57:33;102553.41;;;8.10;38.39
74329;BME280;62749;51.982;5.916;2023-03-01T13:00:22;102546.34;;;8.24;36.63
74329;BME280;62749;51.982;5.916;2023-03-01T13:03:02;102532.22;;;8.38;36.42
74329;BME280;62749;51.982;5.916;2023-03-01T13:05:42;102531.03;;;8.95;35.81
74329;BME280;62749;51.982;5.916;2023-03-01T13:08:24;102536.34;;;8.92;35.71
74329;BME280;62749;51.982;5.916;2023-03-01T13:11:00;102527.63;;;8.80;35.34
74329;BME280;62749;51.982;5.916;2023-03-01T13:13:30;102522.09;;;9.11;35.62
74329;BME280;62749;51.982;5.916;2023-03-01T13:16:21;102513.38;;;9.95;34.79
74329;BME280;62749;51.982;5.916;2023-03-01T13:19:06;102505.53;;;11.12;31.97
74329;BME280;62749;51.982;5.916;2023-03-01T13:21:36;102502.47;;;12.67;29.93
74329;BME280;62749;51.982;5.916;2023-03-01T13:24:24;102491.16;;;13.31;28.57
74329;BME280;62749;51.982;5.916;2023-03-01T13:29:57;102492.69;;;13.05;29.44
74329;BME280;62749;51.982;5.916;2023-03-01T13:32:33;102485.94;;;12.94;29.12
74329;BME280;62749;51.982;5.916;2023-03-01T13:35:42;102477.44;;;12.79;29.45
74329;BME280;62749;51.982;5.916;2023-03-01T13:38:44;102470.44;;;12.77;29.40
74329;BME280;62749;51.982;5.916;2023-03-01T13:41:52;102465.94;;;12.42;30.26
74329;BME280;62749;51.982;5.916;2023-03-01T13:44:28;102466.47;;;13.28;28.73
74329;BME280;62749;51.982;5.916;2023-03-01T13:47:05;102458.38;;;13.97;27.63
74329;BME280;62749;51.982;5.916;2023-03-01T13:49:47;102456.63;;;13.66;26.91
74329;BME280;62749;51.982;5.916;2023-03-01T13:52:36;102461.88;;;11.38;29.82
74329;BME280;62749;51.982;5.916;2023-03-01T13:55:17;102457.34;;;10.40;31.77